createdAt,value
2023-01-20T00:01:00.936Z,7.53
2023-01-20T00:02:03.272Z,6.95
2023-01-20T00:03:05.623Z,8.15
2023-01-20T00:04:07.899Z,7.80
2023-01-20T00:05:10.304Z,7.35
2023-01-20T00:06:12.746Z,7.85
2023-01-20T00:07:15.333Z,7.30
2023-01-20T00:08:17.595Z,8.05
2023-01-20T00:09:20.144Z,8.18
2023-01-20T00:10:22.425Z,7.72
2023-01-20T00:11:25.363Z,7.60
2023-01-20T00:12:30.721Z,7.53
2023-01-20T00:13:34.481Z,8.05
2023-01-20T00:14:36.749Z,7.55
2023-01-20T00:15:39.042Z,7.93
2023-01-20T00:16:41.883Z,8.15
2023-01-20T00:17:44.757Z,7.22
2023-01-20T00:18:47.059Z,8.52
2023-01-20T00:19:49.483Z,8.35
2023-01-20T00:20:51.731Z,8.15
2023-01-20T00:21:55.101Z,7.90
2023-01-20T00:22:57.309Z,7.53
2023-01-20T00:23:59.913Z,7.90
2023-01-20T00:25:02.409Z,8.07
2023-01-20T00:26:25.003Z,8.43
2023-01-20T00:27:27.274Z,7.97
2023-01-20T00:28:29.496Z,8.27
2023-01-20T00:29:31.851Z,8.38
2023-01-20T00:30:34.396Z,7.93
2023-01-20T00:31:36.765Z,8.57
2023-01-20T00:32:44.687Z,8.27
2023-01-20T00:33:48.477Z,7.93
2023-01-20T00:34:50.724Z,8.25
2023-01-20T00:35:53.123Z,7.95
2023-01-20T00:36:55.624Z,8.00
2023-01-20T00:37:57.823Z,8.73
2023-01-20T00:39:02.736Z,8.40
2023-01-20T00:40:05.938Z,8.07
2023-01-20T00:41:08.857Z,7.68
2023-01-20T00:42:11.049Z,8.35
2023-01-20T00:43:13.312Z,8.93
2023-01-20T00:44:15.494Z,8.70
2023-01-20T00:45:17.648Z,7.75
2023-01-20T00:46:19.949Z,7.88
2023-01-20T00:47:22.216Z,8.15
2023-01-20T00:48:24.440Z,8.50
2023-01-20T00:49:26.659Z,8.10
2023-01-20T00:50:28.859Z,7.82
2023-01-20T00:51:31.335Z,8.43
2023-01-20T00:52:33.766Z,8.57
2023-01-20T00:53:36.683Z,8.15
2023-01-20T00:54:39.195Z,8.88
2023-01-20T00:55:41.476Z,8.50
2023-01-20T00:56:43.960Z,9.20
2023-01-20T00:57:46.290Z,8.52
2023-01-20T00:58:48.578Z,9.07
2023-01-20T00:59:51.207Z,8.35
2023-01-20T01:00:55.228Z,9.32
2023-01-20T01:01:57.702Z,8.20
2023-01-20T01:03:00.218Z,8.70
2023-01-20T01:04:02.464Z,8.80
2023-01-20T01:05:05.381Z,8.57
2023-01-20T01:06:18.287Z,9.13
2023-01-20T01:07:20.677Z,8.55
2023-01-20T01:08:22.895Z,9.10
2023-01-20T01:09:25.143Z,8.48
2023-01-20T01:10:27.399Z,9.32
2023-01-20T01:11:29.661Z,9.25
2023-01-20T01:12:31.870Z,8.75
2023-01-20T01:13:35.434Z,9.00
2023-01-20T01:14:37.641Z,9.25
2023-01-20T01:15:39.858Z,8.90
2023-01-20T01:16:42.416Z,8.90
2023-01-20T01:17:45.020Z,9.23
2023-01-20T01:18:47.238Z,9.65
2023-01-20T01:19:53.380Z,9.48
2023-01-20T01:20:55.570Z,9.30
2023-01-20T01:21:58.031Z,9.93
2023-01-20T01:23:00.345Z,9.85
2023-01-20T01:24:03.030Z,9.40
2023-01-20T01:25:05.625Z,10.02
2023-01-20T01:26:08.668Z,9.65
2023-01-20T01:27:11.477Z,9.25
2023-01-20T01:28:14.121Z,8.88
2023-01-20T01:29:16.315Z,10.25
2023-01-20T01:30:18.607Z,9.15
2023-01-20T01:31:22.100Z,10.57
2023-01-20T01:32:24.477Z,9.07
2023-01-20T01:33:26.652Z,9.30
2023-01-20T01:34:29.080Z,9.45
2023-01-20T01:35:31.373Z,9.68
2023-01-20T01:36:33.599Z,9.55
2023-01-20T01:37:36.021Z,9.23
2023-01-20T01:38:38.393Z,8.90
2023-01-20T01:39:40.847Z,10.27
2023-01-20T01:40:49.116Z,9.30
2023-01-20T01:41:51.415Z,9.57
2023-01-20T01:42:53.601Z,10.05
2023-01-20T01:44:06.622Z,9.73
2023-01-20T01:45:12.019Z,9.63
2023-01-20T01:46:14.758Z,9.38
2023-01-20T01:47:17.130Z,10.45
2023-01-20T01:48:42.761Z,9.55
2023-01-20T01:49:45.310Z,10.57
2023-01-20T01:51:15.270Z,9.40
2023-01-20T01:52:20.851Z,9.67
2023-01-20T01:53:23.563Z,9.43
2023-01-20T01:54:42.370Z,9.07
2023-01-20T01:55:49.664Z,9.40
2023-01-20T01:56:52.720Z,9.32
2023-01-20T01:57:56.822Z,10.05
2023-01-20T01:59:01.379Z,10.40
2023-01-20T02:00:06.366Z,10.45
2023-01-20T02:01:15.302Z,10.63
2023-01-20T02:02:21.898Z,9.82
2023-01-20T02:03:33.480Z,9.75
2023-01-20T02:04:38.571Z,11.37
2023-01-20T02:05:42.651Z,10.55
2023-01-20T02:07:08.059Z,11.05
2023-01-20T02:08:11.242Z,10.23
2023-01-20T02:09:13.581Z,10.18
2023-01-20T02:10:17.214Z,11.85
2023-01-20T02:11:19.449Z,11.90
2023-01-20T02:12:22.824Z,11.85
2023-01-20T02:13:25.188Z,11.20
2023-01-20T02:14:34.938Z,10.63
2023-01-20T02:15:49.256Z,10.20
2023-01-20T02:17:12.962Z,10.50
2023-01-20T02:18:33.259Z,11.35
2023-01-20T02:20:12.850Z,10.85
2023-01-20T02:21:27.336Z,10.32
2023-01-20T02:22:48.611Z,10.75
2023-01-20T02:23:50.859Z,10.90
2023-01-20T02:24:55.834Z,10.43
2023-01-20T02:26:00.812Z,10.57
2023-01-20T02:27:15.424Z,10.70
2023-01-20T02:28:43.831Z,10.80
2023-01-20T02:30:03.110Z,10.35
2023-01-20T02:31:41.215Z,11.45
2023-01-20T02:32:48.537Z,11.30
2023-01-20T02:34:17.990Z,11.55
2023-01-20T02:35:47.070Z,11.25
2023-01-20T02:36:55.693Z,11.48
2023-01-20T02:38:06.749Z,12.73
2023-01-20T02:39:39.514Z,12.07
2023-01-20T02:41:05.562Z,11.93
2023-01-20T02:42:19.076Z,12.52
2023-01-20T02:43:36.906Z,12.27
2023-01-20T02:45:02.804Z,12.10
2023-01-20T02:46:46.113Z,12.85
2023-01-20T02:47:56.398Z,12.20
2023-01-20T02:49:08.556Z,12.27
2023-01-20T02:50:22.657Z,12.10
2023-01-20T02:51:31.498Z,11.93
2023-01-20T02:52:44.853Z,12.60
2023-01-20T02:53:52.214Z,11.75
2023-01-20T02:55:00.318Z,11.68
2023-01-20T02:56:04.108Z,13.70
2023-01-20T02:57:11.630Z,12.35
2023-01-20T02:58:19.815Z,12.30
2023-01-20T02:59:26.855Z,13.45
2023-01-20T03:00:39.466Z,12.52
2023-01-20T03:01:52.806Z,12.30
2023-01-20T03:02:59.543Z,13.30
2023-01-20T03:04:04.630Z,12.05
2023-01-20T03:05:17.438Z,12.13
2023-01-20T03:06:25.109Z,12.35
2023-01-20T03:07:29.608Z,13.50
2023-01-20T03:08:33.364Z,11.73
2023-01-20T03:09:47.922Z,12.80
2023-01-20T03:10:52.563Z,14.18
2023-01-20T03:12:00.732Z,13.32
2023-01-20T03:13:32.633Z,13.43
2023-01-20T03:14:35.654Z,13.32
2023-01-20T03:15:51.964Z,14.52
2023-01-20T03:16:54.448Z,14.45
2023-01-20T03:17:57.979Z,14.32
2023-01-20T03:19:00.555Z,15.30
2023-01-20T03:20:03.354Z,14.68
2023-01-20T03:21:08.096Z,15.20
2023-01-20T03:22:10.496Z,16.15
2023-01-20T03:23:13.007Z,14.75
2023-01-20T03:24:15.555Z,15.52
2023-01-20T03:25:20.154Z,16.13
2023-01-20T03:26:23.832Z,17.40
2023-01-20T03:27:26.759Z,15.00
2023-01-20T03:28:29.239Z,15.38
2023-01-20T03:29:32.576Z,15.20
2023-01-20T03:30:35.071Z,16.15
2023-01-20T03:31:43.493Z,17.00
2023-01-20T03:32:49.825Z,15.10
2023-01-20T03:33:56.658Z,16.58
2023-01-20T03:34:59.766Z,15.40
2023-01-20T03:36:02.643Z,17.15
2023-01-20T03:37:05.773Z,17.13
2023-01-20T03:38:09.015Z,17.85
2023-01-20T03:39:12.390Z,16.90
2023-01-20T03:40:15.922Z,17.67
2023-01-20T03:41:33.237Z,17.70
2023-01-20T03:42:42.319Z,18.00
2023-01-20T03:43:53.400Z,16.63
2023-01-20T03:45:06.747Z,17.60
2023-01-20T03:46:23.597Z,18.75
2023-01-20T03:47:37.749Z,19.13
2023-01-20T03:48:49.726Z,18.13
2023-01-20T03:50:01.082Z,19.02
2023-01-20T03:51:34.808Z,17.88
2023-01-20T03:52:48.734Z,18.67
2023-01-20T03:54:03.470Z,17.85
2023-01-20T03:55:20.655Z,17.05
2023-01-20T03:56:32.166Z,19.10
2023-01-20T03:57:42.006Z,18.15
2023-01-20T03:58:48.470Z,17.55
2023-01-20T03:59:52.470Z,18.05
2023-01-20T04:00:57.685Z,17.42
2023-01-20T04:02:05.005Z,18.25
2023-01-20T04:03:13.058Z,18.23
2023-01-20T04:04:19.147Z,18.98
2023-01-20T04:05:22.402Z,19.17
2023-01-20T04:06:28.038Z,19.13
2023-01-20T04:07:32.146Z,18.67
2023-01-20T04:08:37.327Z,19.83
2023-01-20T04:09:45.210Z,19.15
2023-01-20T04:10:49.226Z,18.15
2023-01-20T04:11:51.827Z,19.17
2023-01-20T04:12:55.233Z,19.20
2023-01-20T04:13:57.577Z,19.55
2023-01-20T04:15:00.763Z,18.83
2023-01-20T04:16:09.355Z,19.10
2023-01-20T04:17:12.893Z,19.23
2023-01-20T04:18:16.387Z,18.98
2023-01-20T04:19:19.072Z,19.20
2023-01-20T04:20:21.646Z,18.13
2023-01-20T04:21:33.705Z,19.13
2023-01-20T04:22:50.944Z,19.13
2023-01-20T04:24:16.222Z,18.90
2023-01-20T04:25:27.150Z,18.67
2023-01-20T04:26:29.627Z,18.83
2023-01-20T04:27:32.196Z,19.17
2023-01-20T04:28:34.502Z,19.85
2023-01-20T04:29:37.526Z,19.05
2023-01-20T04:30:39.883Z,19.40
2023-01-20T04:31:42.346Z,19.05
2023-01-20T04:32:44.926Z,18.42
2023-01-20T04:33:47.187Z,18.67
2023-01-20T04:34:53.463Z,18.05
2023-01-20T04:35:55.699Z,18.80
2023-01-20T04:36:57.989Z,17.50
2023-01-20T04:38:00.449Z,18.38
2023-01-20T04:39:02.708Z,17.67
2023-01-20T04:40:05.605Z,19.00
2023-01-20T04:41:11.311Z,16.67
2023-01-20T04:42:14.388Z,18.42
2023-01-20T04:43:16.953Z,18.23
2023-01-20T04:44:19.148Z,17.27
2023-01-20T04:45:21.611Z,18.40
2023-01-20T04:46:23.896Z,18.00
2023-01-20T04:47:26.277Z,20.17
2023-01-20T04:48:28.475Z,18.50
2023-01-20T04:49:31.071Z,17.70
2023-01-20T04:50:33.678Z,18.35
2023-01-20T04:51:35.965Z,18.02
2023-01-20T04:52:38.399Z,17.40
2023-01-20T04:53:40.767Z,20.02
2023-01-20T04:54:43.594Z,17.92
2023-01-20T04:55:46.384Z,18.80
2023-01-20T04:56:49.208Z,17.08
2023-01-20T04:57:51.559Z,17.90
2023-01-20T04:58:53.783Z,18.42
2023-01-20T04:59:56.161Z,17.85
2023-01-20T05:01:01.938Z,17.83
2023-01-20T05:02:04.179Z,18.67
2023-01-20T05:03:06.481Z,17.92
2023-01-20T05:04:08.714Z,18.50
2023-01-20T05:05:11.152Z,18.58
2023-01-20T05:06:13.618Z,19.73
2023-01-20T05:07:15.809Z,19.30
2023-01-20T05:08:18.240Z,17.88
2023-01-20T05:09:20.522Z,18.73
2023-01-20T05:10:22.832Z,18.95
2023-01-20T05:11:25.089Z,18.92
2023-01-20T05:12:27.260Z,18.95
2023-01-20T05:13:30.636Z,18.42
2023-01-20T05:14:32.880Z,19.40
2023-01-20T05:15:35.097Z,19.17
2023-01-20T05:16:37.717Z,18.30
2023-01-20T05:17:40.029Z,18.27
2023-01-20T05:18:42.313Z,19.15
2023-01-20T05:19:44.536Z,18.63
2023-01-20T05:20:49.984Z,18.65
2023-01-20T05:21:52.217Z,19.27
2023-01-20T05:22:54.447Z,19.08
2023-01-20T05:23:57.486Z,18.83
2023-01-20T05:25:00.095Z,19.83
2023-01-20T05:26:02.368Z,18.83
2023-01-20T05:27:04.554Z,19.42
2023-01-20T05:28:06.765Z,20.85
2023-01-20T05:29:09.257Z,19.98
2023-01-20T05:30:11.804Z,20.67
2023-01-20T05:31:14.356Z,20.15
2023-01-20T05:32:16.634Z,20.25
2023-01-20T05:33:18.805Z,19.95
2023-01-20T05:34:21.086Z,19.98
2023-01-20T05:35:23.488Z,19.17
2023-01-20T05:36:25.953Z,20.35
2023-01-20T05:37:28.267Z,19.55
2023-01-20T05:38:30.839Z,20.35
2023-01-20T05:39:33.173Z,20.08
2023-01-20T05:40:35.836Z,19.90
2023-01-20T05:41:38.111Z,19.52
2023-01-20T05:42:40.303Z,19.33
2023-01-20T05:43:42.770Z,20.63
2023-01-20T05:44:44.978Z,20.13
2023-01-20T05:45:47.655Z,19.75
2023-01-20T05:46:50.052Z,20.23
2023-01-20T05:47:59.879Z,19.65
2023-01-20T05:50:06.316Z,20.25
2023-01-20T05:51:09.009Z,20.55
2023-01-20T05:52:11.415Z,19.77
2023-01-20T05:53:14.147Z,19.58
2023-01-20T05:54:16.618Z,19.13
2023-01-20T05:55:18.919Z,18.83
2023-01-20T05:56:21.197Z,18.95
2023-01-20T05:57:26.389Z,19.73
2023-01-20T05:58:29.370Z,19.75
2023-01-20T05:59:31.995Z,19.90
2023-01-20T06:00:34.625Z,20.02
2023-01-20T06:01:37.054Z,19.13
2023-01-20T06:02:40.436Z,18.55
2023-01-20T06:03:42.991Z,20.08
2023-01-20T06:04:48.986Z,20.02
2023-01-20T06:05:51.310Z,19.55
2023-01-20T06:06:53.758Z,20.10
2023-01-20T06:07:56.821Z,20.42
2023-01-20T06:08:59.084Z,18.70
2023-01-20T06:10:02.521Z,19.38
2023-01-20T06:11:05.071Z,20.13
2023-01-20T06:12:08.443Z,19.77
2023-01-20T06:13:10.944Z,19.08
2023-01-20T06:14:13.211Z,19.48
2023-01-20T06:15:15.669Z,19.38
2023-01-20T06:16:19.574Z,19.83
2023-01-20T06:17:21.910Z,19.75
2023-01-20T06:18:24.658Z,19.38
2023-01-20T06:19:26.885Z,20.20
2023-01-20T06:20:29.149Z,20.58
2023-01-20T06:21:31.747Z,20.10
2023-01-20T06:22:34.056Z,20.20
2023-01-20T06:23:36.502Z,21.25
2023-01-20T06:24:38.755Z,21.08
2023-01-20T06:25:42.241Z,21.25
2023-01-20T06:26:44.785Z,20.67
2023-01-20T06:27:46.949Z,19.85
2023-01-20T06:28:49.141Z,20.77
2023-01-20T06:29:51.590Z,19.65
2023-01-20T06:31:05.839Z,19.77
2023-01-20T06:32:08.136Z,28.85
2023-01-20T06:33:10.875Z,19.65
2023-01-20T06:34:13.323Z,19.30
2023-01-20T06:35:16.046Z,19.45
2023-01-20T06:36:18.522Z,19.67
2023-01-20T06:37:20.706Z,20.20
2023-01-20T06:38:28.677Z,20.88
2023-01-20T06:39:31.040Z,19.60
2023-01-20T06:40:33.586Z,19.67
2023-01-20T06:41:35.782Z,20.05
2023-01-20T06:42:38.417Z,19.70
2023-01-20T06:43:41.888Z,20.45
2023-01-20T06:44:44.147Z,19.10
2023-01-20T06:45:46.555Z,20.00
2023-01-20T06:46:48.751Z,19.05
2023-01-20T06:47:51.138Z,19.15
2023-01-20T06:49:00.147Z,18.02
2023-01-20T06:50:02.418Z,18.35
2023-01-20T06:51:10.819Z,18.17
2023-01-20T06:52:13.280Z,17.70
2023-01-20T06:53:15.485Z,18.63
2023-01-20T06:54:18.052Z,18.02
2023-01-20T06:55:20.221Z,18.08
2023-01-20T06:56:23.136Z,18.52
2023-01-20T06:57:25.515Z,19.33
2023-01-20T06:58:30.292Z,19.05
2023-01-20T06:59:32.698Z,18.83
2023-01-20T07:00:34.945Z,18.33
2023-01-20T07:01:37.200Z,18.48
2023-01-20T07:02:39.865Z,19.67
2023-01-20T07:03:43.728Z,19.08
2023-01-20T07:04:46.184Z,18.50
2023-01-20T07:06:02.209Z,20.08
2023-01-20T07:07:04.435Z,19.70
2023-01-20T07:08:06.967Z,20.35
2023-01-20T07:09:11.882Z,21.80
2023-01-20T07:10:14.292Z,20.38
2023-01-20T07:11:16.563Z,20.10
2023-01-20T07:12:18.741Z,19.98
2023-01-20T07:13:21.233Z,20.92
2023-01-20T07:14:23.493Z,21.95
2023-01-20T07:15:25.681Z,21.50
2023-01-20T07:16:28.616Z,20.95
2023-01-20T07:17:30.838Z,19.65
2023-01-20T07:18:33.269Z,19.48
2023-01-20T07:19:35.464Z,21.88
2023-01-20T07:20:38.775Z,20.23
2023-01-20T07:21:41.208Z,21.40
2023-01-20T07:22:43.422Z,21.15
2023-01-20T07:23:46.455Z,20.77
2023-01-20T07:24:48.725Z,22.95
2023-01-20T07:26:02.026Z,23.15
2023-01-20T07:27:05.151Z,20.48
2023-01-20T07:28:07.388Z,22.23
2023-01-20T07:29:10.212Z,20.63
2023-01-20T07:30:12.671Z,22.77
2023-01-20T07:31:17.405Z,22.20
2023-01-20T07:32:20.406Z,22.00
2023-01-20T07:33:22.795Z,22.10
2023-01-20T07:34:25.028Z,21.77
2023-01-20T07:35:27.272Z,20.55
2023-01-20T07:36:29.488Z,22.35
2023-01-20T07:37:31.704Z,23.25
2023-01-20T07:38:34.799Z,22.23
2023-01-20T07:39:36.975Z,21.77
2023-01-20T07:40:39.196Z,21.35
2023-01-20T07:41:42.190Z,21.58
2023-01-20T07:42:44.370Z,21.90
2023-01-20T07:43:48.451Z,23.05
2023-01-20T07:44:51.624Z,22.08
2023-01-20T07:45:58.377Z,22.17
2023-01-20T07:47:00.719Z,21.52
2023-01-20T07:48:03.868Z,22.60
2023-01-20T07:49:06.376Z,21.35
2023-01-20T07:50:09.142Z,21.80
2023-01-20T07:51:13.382Z,20.75
2023-01-20T07:52:15.572Z,21.88
2023-01-20T07:53:17.751Z,21.35
2023-01-20T07:54:20.162Z,21.00
2023-01-20T07:55:24.922Z,19.98
2023-01-20T07:56:28.251Z,21.27
2023-01-20T07:57:30.685Z,19.63
2023-01-20T07:58:33.522Z,20.10
2023-01-20T07:59:35.940Z,19.75
2023-01-20T08:00:38.207Z,20.85
2023-01-20T08:01:42.763Z,19.20
2023-01-20T08:02:45.436Z,19.05
2023-01-20T08:03:48.768Z,18.70
2023-01-20T08:04:51.182Z,18.58
2023-01-20T08:05:53.420Z,19.48
2023-01-20T08:06:55.840Z,17.70
2023-01-20T08:07:58.097Z,17.85
2023-01-20T08:09:02.321Z,16.63
2023-01-20T08:10:05.096Z,17.10
2023-01-20T08:11:08.846Z,16.30
2023-01-20T08:12:11.279Z,15.95
2023-01-20T08:13:13.515Z,16.58
2023-01-20T08:14:15.709Z,16.90
2023-01-20T08:15:18.361Z,16.85
2023-01-20T08:16:21.236Z,20.10
2023-01-20T08:17:23.885Z,16.08
2023-01-20T08:18:26.131Z,15.70
2023-01-20T08:19:29.928Z,16.45
2023-01-20T08:20:32.244Z,16.90
2023-01-20T08:21:34.815Z,17.30
2023-01-20T08:22:37.036Z,15.18
2023-01-20T08:23:39.235Z,15.10
2023-01-20T08:24:41.503Z,15.65
2023-01-20T08:25:43.880Z,15.10
2023-01-20T08:26:46.296Z,15.30
2023-01-20T08:27:50.211Z,14.98
2023-01-20T08:28:52.940Z,15.73
2023-01-20T08:29:55.675Z,15.55
2023-01-20T08:31:09.797Z,15.50
2023-01-20T08:32:12.191Z,15.25
2023-01-20T08:33:14.610Z,13.20
2023-01-20T08:34:18.698Z,14.20
2023-01-20T08:35:21.111Z,15.18
2023-01-20T08:36:28.797Z,14.57
2023-01-20T08:37:31.192Z,13.65
2023-01-20T08:38:33.856Z,15.13
2023-01-20T08:39:36.022Z,14.45
2023-01-20T08:40:41.847Z,14.32
2023-01-20T08:41:44.599Z,14.02
2023-01-20T08:42:46.987Z,14.30
2023-01-20T08:43:49.611Z,13.73
2023-01-20T08:44:53.522Z,14.80
2023-01-20T08:46:04.604Z,15.57
2023-01-20T08:47:06.853Z,15.30
2023-01-20T08:48:09.812Z,13.57
2023-01-20T08:49:16.932Z,15.75
2023-01-20T08:50:22.517Z,15.98
2023-01-20T08:51:30.875Z,16.58
2023-01-20T08:52:34.111Z,16.55
2023-01-20T08:53:36.797Z,15.80
2023-01-20T08:54:38.957Z,15.85
2023-01-20T08:55:41.127Z,15.85
2023-01-20T08:56:43.904Z,16.05
2023-01-20T08:57:46.175Z,16.23
2023-01-20T08:58:49.000Z,16.08
2023-01-20T08:59:51.197Z,16.48
2023-01-20T09:00:53.749Z,16.77
2023-01-20T09:01:56.196Z,16.73
2023-01-20T09:02:58.369Z,16.15
2023-01-20T09:04:06.109Z,16.95
2023-01-20T09:05:09.227Z,14.90
2023-01-20T09:06:12.332Z,16.63
2023-01-20T09:07:14.681Z,17.00
2023-01-20T09:08:17.956Z,16.05
2023-01-20T09:09:22.530Z,17.25
2023-01-20T09:10:24.789Z,17.33
2023-01-20T09:11:27.260Z,16.58
2023-01-20T09:12:29.518Z,17.52
2023-01-20T09:13:32.091Z,16.48
2023-01-20T09:14:34.411Z,15.73
2023-01-20T09:15:36.837Z,15.63
2023-01-20T09:16:39.054Z,14.60
2023-01-20T09:17:41.222Z,16.60
2023-01-20T09:18:44.739Z,16.15
2023-01-20T09:19:46.912Z,17.42
2023-01-20T09:20:49.461Z,16.92
2023-01-20T09:21:51.747Z,16.92
2023-01-20T09:22:54.360Z,17.65
2023-01-20T09:23:56.591Z,17.45
2023-01-20T09:24:58.773Z,17.38
2023-01-20T09:26:01.612Z,17.40
2023-01-20T09:27:03.980Z,18.05
2023-01-20T09:28:06.779Z,14.88
2023-01-20T09:29:16.115Z,15.00
2023-01-20T09:30:18.468Z,14.43
2023-01-20T09:31:20.825Z,14.77
2023-01-20T09:32:23.237Z,15.18
2023-01-20T09:33:25.619Z,15.90
2023-01-20T09:34:29.575Z,14.65
2023-01-20T09:35:31.926Z,15.10
2023-01-20T09:36:34.214Z,16.63
2023-01-20T09:37:55.413Z,15.77
2023-01-20T09:40:40.688Z,14.57
2023-01-20T09:42:06.325Z,14.55
2023-01-20T09:43:46.085Z,14.70
2023-01-20T09:44:53.641Z,13.30
2023-01-20T09:46:03.653Z,13.75
2023-01-20T09:47:21.396Z,14.95
2023-01-20T09:48:51.847Z,14.70
2023-01-20T09:50:21.502Z,14.43
2023-01-20T09:51:49.148Z,13.82
2023-01-20T09:53:04.245Z,12.10
2023-01-20T09:54:23.505Z,12.80
2023-01-20T09:55:38.206Z,11.60
2023-01-20T09:56:46.692Z,13.85
2023-01-20T09:57:59.115Z,13.65
2023-01-20T09:59:08.504Z,14.40
2023-01-20T10:00:18.570Z,15.00
2023-01-20T10:01:40.755Z,16.30
2023-01-20T10:02:47.837Z,15.57
2023-01-20T10:04:04.827Z,14.48
2023-01-20T10:05:15.602Z,13.27
2023-01-20T10:06:39.556Z,13.15
2023-01-20T10:08:09.509Z,14.18
2023-01-20T10:09:17.921Z,14.48
2023-01-20T10:10:32.806Z,14.50
2023-01-20T10:11:46.443Z,13.88
2023-01-20T10:12:56.541Z,13.40
2023-01-20T10:14:25.484Z,15.88
2023-01-20T10:15:35.458Z,13.63
2023-01-20T10:17:01.282Z,15.68
2023-01-20T10:18:18.136Z,14.88
2023-01-20T10:19:28.137Z,16.13
2023-01-20T10:20:37.199Z,12.15
2023-01-20T10:21:54.924Z,16.33
2023-01-20T10:23:16.634Z,17.10
2023-01-20T10:24:28.408Z,15.30
2023-01-20T10:25:36.478Z,14.70
2023-01-20T10:27:02.943Z,15.43
2023-01-20T10:28:11.867Z,15.65
2023-01-20T10:29:20.244Z,16.05
2023-01-20T10:30:26.749Z,15.73
2023-01-20T10:31:37.929Z,16.13
2023-01-20T10:32:48.996Z,16.27
2023-01-20T10:33:55.228Z,16.92
2023-01-20T10:35:00.546Z,15.48
2023-01-20T10:36:02.814Z,15.68
2023-01-20T10:37:10.474Z,17.23
2023-01-20T10:38:52.615Z,15.93
2023-01-20T10:40:35.267Z,15.90
2023-01-20T10:41:46.187Z,15.90
2023-01-20T10:42:55.646Z,16.85
2023-01-20T10:43:59.661Z,16.38
2023-01-20T10:45:02.175Z,17.30
2023-01-20T10:46:19.522Z,17.48
2023-01-20T10:47:41.213Z,16.70
2023-01-20T10:48:58.601Z,16.52
2023-01-20T10:50:17.933Z,16.38
2023-01-20T10:51:29.122Z,15.43
2023-01-20T10:52:46.642Z,15.23
2023-01-20T10:54:12.247Z,15.00
2023-01-20T10:55:20.520Z,15.60
2023-01-20T10:56:42.635Z,14.10
2023-01-20T10:57:50.705Z,15.98
2023-01-20T10:58:53.244Z,17.05
2023-01-20T11:00:05.091Z,15.63
2023-01-20T11:01:11.141Z,18.00
2023-01-20T11:02:35.706Z,16.52
2023-01-20T11:03:42.405Z,16.38
2023-01-20T11:04:46.122Z,16.95
2023-01-20T11:05:51.160Z,15.98
2023-01-20T11:06:58.358Z,15.93
2023-01-20T11:08:02.140Z,15.52
2023-01-20T11:09:37.593Z,16.90
2023-01-20T11:10:40.333Z,17.63
2023-01-20T11:11:42.899Z,16.75
2023-01-20T11:12:48.915Z,17.13
2023-01-20T11:13:52.238Z,17.90
2023-01-20T11:14:57.664Z,19.92
2023-01-20T11:16:05.020Z,16.20
2023-01-20T11:17:12.803Z,15.85
2023-01-20T11:18:15.113Z,16.80
2023-01-20T11:19:17.324Z,18.70
2023-01-20T11:20:22.390Z,17.27
2023-01-20T11:21:26.808Z,16.17
2023-01-20T11:22:34.382Z,17.15
2023-01-20T11:23:52.930Z,17.33
2023-01-20T11:24:58.925Z,17.17
2023-01-20T11:26:10.252Z,16.58
2023-01-20T11:27:25.917Z,16.73
2023-01-20T11:28:37.355Z,16.23
2023-01-20T11:29:45.162Z,16.00
2023-01-20T11:30:52.525Z,16.85
2023-01-20T11:31:56.779Z,16.90
2023-01-20T11:33:18.341Z,17.63
2023-01-20T11:34:25.789Z,17.33
2023-01-20T11:35:28.163Z,17.80
2023-01-20T11:36:30.391Z,16.80
2023-01-20T11:37:38.803Z,19.45
2023-01-20T11:38:42.406Z,17.77
2023-01-20T11:39:50.692Z,17.38
2023-01-20T11:40:55.105Z,18.15
2023-01-20T11:42:16.766Z,17.88
2023-01-20T11:43:35.575Z,18.40
2023-01-20T11:44:52.629Z,18.92
2023-01-20T11:46:16.350Z,18.25
2023-01-20T11:47:36.429Z,18.13
2023-01-20T11:48:38.636Z,19.75
2023-01-20T11:49:40.832Z,17.20
2023-01-20T11:50:57.537Z,17.67
2023-01-20T11:52:00.986Z,16.77
2023-01-20T11:53:24.302Z,17.40
2023-01-20T11:54:29.098Z,17.17
2023-01-20T11:55:31.366Z,18.90
2023-01-20T11:56:40.679Z,17.67
2023-01-20T11:57:51.287Z,19.33
2023-01-20T11:59:03.620Z,16.70
2023-01-20T12:00:21.073Z,16.75
2023-01-20T12:01:27.685Z,15.57
2023-01-20T12:02:30.051Z,18.08
2023-01-20T12:03:35.217Z,16.58
2023-01-20T12:04:53.119Z,16.98
2023-01-20T12:06:19.181Z,14.65
2023-01-20T12:07:28.139Z,16.20
2023-01-20T12:08:31.769Z,15.27
2023-01-20T12:09:38.550Z,14.98
2023-01-20T12:10:41.635Z,20.05
2023-01-20T12:11:56.080Z,15.93
2023-01-20T12:13:19.735Z,13.40
2023-01-20T12:14:49.733Z,15.32
2023-01-20T12:15:55.414Z,12.57
2023-01-20T12:17:21.010Z,11.80
2023-01-20T12:19:03.193Z,13.10
2023-01-20T12:20:10.191Z,13.90
2023-01-20T12:21:18.019Z,14.02
2023-01-20T12:22:35.681Z,13.80
2023-01-20T12:23:45.650Z,15.02
2023-01-20T12:25:08.042Z,14.73
2023-01-20T12:26:11.391Z,14.35
2023-01-20T12:27:24.046Z,13.20
2023-01-20T12:28:41.071Z,14.10
2023-01-20T12:29:46.038Z,14.48
2023-01-20T12:30:57.238Z,15.07
2023-01-20T12:32:00.991Z,14.75
2023-01-20T12:33:03.667Z,16.98
2023-01-20T12:34:16.187Z,16.23
2023-01-20T12:35:23.083Z,15.57
2023-01-20T12:36:50.058Z,15.90
2023-01-20T12:37:57.150Z,13.63
2023-01-20T12:39:15.145Z,13.10
2023-01-20T12:40:22.606Z,12.95
2023-01-20T12:41:30.804Z,13.80
2023-01-20T12:42:57.715Z,14.93
2023-01-20T12:44:25.550Z,13.95
2023-01-20T12:45:39.586Z,12.57
2023-01-20T12:46:51.294Z,12.68
2023-01-20T12:48:27.817Z,13.73
2023-01-20T12:49:46.517Z,14.32
2023-01-20T12:51:00.656Z,15.93
2023-01-20T12:52:21.738Z,14.32
2023-01-20T12:55:11.065Z,11.90
2023-01-20T12:56:45.580Z,12.55
2023-01-20T12:58:32.980Z,14.63
2023-01-20T13:00:03.317Z,13.27
2023-01-20T13:01:49.351Z,16.25
2023-01-20T13:03:22.784Z,14.23
2023-01-20T13:04:55.793Z,12.98
2023-01-20T13:06:21.473Z,12.23
2023-01-20T13:07:48.642Z,14.45
2023-01-20T13:09:05.712Z,14.48
2023-01-20T13:10:33.745Z,12.90
2023-01-20T13:12:04.210Z,12.38
2023-01-20T13:13:19.439Z,13.52
2023-01-20T13:14:27.916Z,14.15
2023-01-20T13:16:10.438Z,13.60
2023-01-20T13:17:17.748Z,13.43
2023-01-20T13:18:39.534Z,15.57
2023-01-20T13:19:43.500Z,17.25
2023-01-20T13:20:46.646Z,16.58
2023-01-20T13:22:03.052Z,15.10
2023-01-20T13:23:13.993Z,13.88
2023-01-20T13:24:25.194Z,14.50
2023-01-20T13:25:28.568Z,14.50
2023-01-20T13:26:32.482Z,14.15
2023-01-20T13:27:37.482Z,14.00
2023-01-20T13:28:51.151Z,16.45
2023-01-20T13:29:58.420Z,17.13
2023-01-20T13:31:21.892Z,15.68
2023-01-20T13:32:36.627Z,17.70
2023-01-20T13:33:42.400Z,18.50
2023-01-20T13:34:44.631Z,18.83
2023-01-20T13:35:51.221Z,16.48
2023-01-20T13:37:02.495Z,17.75
2023-01-20T13:38:04.979Z,16.90
2023-01-20T13:39:30.154Z,17.52
2023-01-20T13:40:38.489Z,17.13
2023-01-20T13:41:52.119Z,16.67
2023-01-20T13:42:54.957Z,15.00
2023-01-20T13:43:57.503Z,15.48
2023-01-20T13:45:11.755Z,15.35
2023-01-20T13:46:19.903Z,16.88
2023-01-20T13:47:52.454Z,15.27
2023-01-20T13:49:15.754Z,17.05
2023-01-20T13:50:42.392Z,16.02
2023-01-20T13:51:46.035Z,16.95
2023-01-20T13:52:52.104Z,16.80
2023-01-20T13:53:54.560Z,16.00
2023-01-20T13:54:57.647Z,15.93
2023-01-20T13:56:01.978Z,15.57
2023-01-20T13:57:23.369Z,15.00
2023-01-20T13:58:27.481Z,15.95
2023-01-20T13:59:29.681Z,16.77
2023-01-20T14:00:32.106Z,14.10
2023-01-20T14:01:37.202Z,16.10
2023-01-20T14:02:39.845Z,15.88
2023-01-20T14:03:44.494Z,14.50
2023-01-20T14:04:48.360Z,15.43
2023-01-20T14:05:55.422Z,14.48
2023-01-20T14:06:57.845Z,15.07
2023-01-20T14:08:00.685Z,14.63
2023-01-20T14:09:03.912Z,15.15
2023-01-20T14:10:11.942Z,15.60
2023-01-20T14:11:15.518Z,14.68
2023-01-20T14:12:17.735Z,14.07
2023-01-20T14:13:25.071Z,14.18
2023-01-20T14:14:27.411Z,13.82
2023-01-20T14:15:34.897Z,14.00
2023-01-20T14:16:38.530Z,14.55
2023-01-20T14:17:41.327Z,14.50
2023-01-20T14:18:43.885Z,16.65
2023-01-20T14:19:50.802Z,14.45
2023-01-20T14:21:19.394Z,16.25
2023-01-20T14:22:27.109Z,16.33
2023-01-20T14:23:38.142Z,16.10
2023-01-20T14:24:45.618Z,14.90
2023-01-20T14:25:59.168Z,21.52
2023-01-20T14:27:23.851Z,15.45
2023-01-20T14:28:26.465Z,15.55
2023-01-20T14:29:28.850Z,15.98
2023-01-20T14:30:31.192Z,16.23
2023-01-20T14:31:44.032Z,15.85
2023-01-20T14:32:47.768Z,15.68
2023-01-20T14:34:03.489Z,13.75
2023-01-20T14:35:18.160Z,14.93
2023-01-20T14:36:22.001Z,13.88
2023-01-20T14:37:35.095Z,15.93